createdAt,value
2023-03-18T00:02:13.746Z,100360.66
2023-03-18T00:04:40.581Z,100362.39
2023-03-18T00:07:07.544Z,100367.77
2023-03-18T00:09:34.576Z,100369.33
2023-03-18T00:12:01.520Z,100369.67
2023-03-18T00:14:29.489Z,100369.91
2023-03-18T00:16:57.009Z,100366.98
2023-03-18T00:19:24.675Z,100362.73
2023-03-18T00:21:51.472Z,100366.48
2023-03-18T00:24:18.186Z,100366.17
2023-03-18T00:26:45.887Z,100366.96
2023-03-18T00:29:13.115Z,100363.73
2023-03-18T00:31:41.198Z,100364.71
2023-03-18T00:34:12.493Z,100360.95
2023-03-18T00:36:41.228Z,100364.99
2023-03-18T00:39:08.984Z,100367.05
2023-03-18T00:41:37.787Z,100366.04
2023-03-18T00:44:05.440Z,100365.34
2023-03-18T00:46:37.195Z,100367.31
2023-03-18T00:49:05.988Z,100369.11
2023-03-18T00:51:34.721Z,100369.27
2023-03-18T00:54:06.014Z,100371.55
2023-03-18T00:56:33.358Z,100367.09
2023-03-18T00:59:00.369Z,100369.17
2023-03-18T01:01:27.716Z,100362.21
2023-03-18T01:03:55.291Z,100368.35
2023-03-18T01:06:24.425Z,100366.20
2023-03-18T01:08:53.195Z,100366.19
2023-03-18T01:11:19.963Z,100365.27
2023-03-18T01:13:47.432Z,100370.91
2023-03-18T01:16:14.484Z,100369.80
2023-03-18T01:18:41.542Z,100373.05
2023-03-18T01:21:09.043Z,100375.18
2023-03-18T01:23:38.591Z,100374.88
2023-03-18T01:26:05.492Z,100376.20
2023-03-18T01:28:33.434Z,100376.59
2023-03-18T01:31:00.966Z,100375.70
2023-03-18T01:33:29.445Z,100375.42
2023-03-18T01:35:59.428Z,100375.20
2023-03-18T01:38:31.439Z,100381.21
2023-03-18T01:41:07.038Z,100380.32
2023-03-18T01:43:35.760Z,100380.00
2023-03-18T01:46:44.392Z,100381.19
2023-03-18T01:49:22.184Z,100382.52
2023-03-18T01:51:57.944Z,100384.89
2023-03-18T01:54:25.951Z,100384.34
2023-03-18T01:56:53.457Z,100384.23
2023-03-18T01:59:21.992Z,100388.30
2023-03-18T02:02:06.298Z,100392.77
2023-03-18T02:04:56.807Z,100393.48
2023-03-18T02:07:29.258Z,100396.72
2023-03-18T02:09:57.361Z,100394.09
2023-03-18T02:12:26.551Z,100395.91
2023-03-18T02:14:55.600Z,100399.81
2023-03-18T02:17:29.876Z,100406.45
2023-03-18T02:20:14.480Z,100409.58
2023-03-18T02:22:45.068Z,100409.00
2023-03-18T02:25:33.612Z,100409.56
2023-03-18T02:28:02.759Z,100411.74
2023-03-18T02:30:54.229Z,100414.54
2023-03-18T02:33:22.606Z,100415.91
2023-03-18T02:35:56.533Z,100417.98
2023-03-18T02:38:23.873Z,100418.80
2023-03-18T02:40:53.997Z,100423.17
2023-03-18T02:43:24.681Z,100428.95
2023-03-18T02:45:57.529Z,100429.33
2023-03-18T02:48:28.756Z,100428.89
2023-03-18T02:50:55.438Z,100428.97
2023-03-18T02:53:25.673Z,100432.20
2023-03-18T02:55:52.671Z,100432.17
2023-03-18T02:58:19.253Z,100429.53
2023-03-18T03:00:47.804Z,100429.02
2023-03-18T03:03:14.897Z,100431.32
2023-03-18T03:05:45.334Z,100426.67
2023-03-18T03:08:12.612Z,100428.64
2023-03-18T03:10:41.531Z,100430.09
2023-03-18T03:13:11.532Z,100432.56
2023-03-18T03:15:42.540Z,100435.76
2023-03-18T03:18:09.726Z,100433.84
2023-03-18T03:20:38.393Z,100439.02
2023-03-18T03:23:06.719Z,100441.48
2023-03-18T03:25:34.871Z,100449.20
2023-03-18T03:28:03.387Z,100442.88
2023-03-18T03:30:30.318Z,100441.48
2023-03-18T03:33:02.320Z,100443.41
2023-03-18T03:35:29.103Z,100443.83
2023-03-18T03:37:56.352Z,100448.50
2023-03-18T03:40:23.384Z,100449.23
2023-03-18T03:42:51.263Z,100450.77
2023-03-18T03:45:18.656Z,100443.89
2023-03-18T03:47:46.613Z,100440.63
2023-03-18T03:50:18.560Z,100441.67
2023-03-18T03:52:47.607Z,100445.91
2023-03-18T03:55:16.906Z,100448.42
2023-03-18T03:57:45.293Z,100449.54
2023-03-18T04:00:14.736Z,100445.98
2023-03-18T04:02:43.139Z,100445.20
2023-03-18T04:05:12.004Z,100448.25
2023-03-18T04:07:39.158Z,100450.52
2023-03-18T04:10:08.991Z,100448.98
2023-03-18T04:12:37.633Z,100448.31
2023-03-18T04:15:06.063Z,100448.10
2023-03-18T04:17:34.029Z,100449.78
2023-03-18T04:20:01.469Z,100449.86
2023-03-18T04:22:31.343Z,100446.84
2023-03-18T04:24:59.931Z,100451.25
2023-03-18T04:27:27.543Z,100454.96
2023-03-18T04:29:55.856Z,100451.42
2023-03-18T04:32:23.080Z,100452.42
2023-03-18T04:34:49.893Z,100451.23
2023-03-18T04:37:19.629Z,100456.92
2023-03-18T04:39:47.421Z,100452.45
2023-03-18T04:42:15.397Z,100452.38
2023-03-18T04:44:42.142Z,100451.23
2023-03-18T04:47:09.146Z,100453.20
2023-03-18T04:49:37.232Z,100453.14
2023-03-18T04:52:04.812Z,100458.20
2023-03-18T04:54:36.653Z,100458.55
2023-03-18T04:57:05.562Z,100461.03
2023-03-18T04:59:35.538Z,100461.60
2023-03-18T05:02:04.451Z,100462.68
2023-03-18T05:04:31.848Z,100465.73
2023-03-18T05:07:00.158Z,100461.27
2023-03-18T05:09:30.840Z,100464.11
2023-03-18T05:12:00.612Z,100462.23
2023-03-18T05:14:32.358Z,100464.61
2023-03-18T05:16:59.526Z,100466.70
2023-03-18T05:19:27.586Z,100467.46
2023-03-18T05:22:00.539Z,100466.80
2023-03-18T05:24:28.142Z,100468.11
2023-03-18T05:26:59.506Z,100469.55
2023-03-18T05:29:31.960Z,100464.45
2023-03-18T05:32:19.695Z,100470.29
2023-03-18T05:34:50.075Z,100470.31
2023-03-18T05:37:17.475Z,100468.78
2023-03-18T05:39:50.562Z,100468.46
2023-03-18T05:42:19.176Z,100470.02
2023-03-18T05:44:46.294Z,100469.92
2023-03-18T05:47:13.431Z,100476.13
2023-03-18T05:49:52.373Z,100475.22
2023-03-18T05:52:24.148Z,100480.42
2023-03-18T05:54:53.742Z,100480.30
2023-03-18T05:57:26.122Z,100481.61
2023-03-18T05:59:59.033Z,100484.58
2023-03-18T06:02:28.055Z,100489.69
2023-03-18T06:04:55.502Z,100486.36
2023-03-18T06:07:23.292Z,100491.52
2023-03-18T06:09:51.807Z,100493.82
2023-03-18T06:12:19.751Z,100500.40
2023-03-18T06:14:46.344Z,100500.95
2023-03-18T06:17:13.381Z,100504.15
2023-03-18T06:19:40.718Z,100506.11
2023-03-18T06:22:09.370Z,100501.92
2023-03-18T06:24:36.861Z,100501.81
2023-03-18T06:27:04.165Z,100500.82
2023-03-18T06:29:33.241Z,100503.23
2023-03-18T06:32:09.409Z,100505.10
2023-03-18T06:34:40.317Z,100507.70
2023-03-18T06:37:07.695Z,100506.48
2023-03-18T06:39:34.919Z,100506.65
2023-03-18T06:42:04.327Z,100507.17
2023-03-18T06:44:36.199Z,100507.70
2023-03-18T06:47:18.829Z,100505.00
2023-03-18T06:49:51.583Z,100505.35
2023-03-18T06:52:22.789Z,100508.08
2023-03-18T06:54:50.097Z,100507.36
2023-03-18T06:57:16.948Z,100504.94
2023-03-18T06:59:48.686Z,100500.88
2023-03-18T07:02:15.773Z,100495.77
2023-03-18T07:04:42.707Z,100496.23
2023-03-18T07:07:10.490Z,100499.06
2023-03-18T07:09:37.289Z,100497.32
2023-03-18T07:12:07.758Z,100493.67
2023-03-18T07:14:35.078Z,100492.89
2023-03-18T07:17:02.249Z,100491.76
2023-03-18T07:19:32.677Z,100494.02
2023-03-18T07:22:01.952Z,100499.86
2023-03-18T07:24:29.815Z,100499.38
2023-03-18T07:27:04.014Z,100501.45
2023-03-18T07:29:33.306Z,100502.68
2023-03-18T07:32:01.256Z,100500.63
2023-03-18T07:34:28.254Z,100502.69
2023-03-18T07:36:55.982Z,100506.04
2023-03-18T07:39:28.121Z,100507.42
2023-03-18T07:41:55.026Z,100510.39
2023-03-18T07:44:24.748Z,100509.10
2023-03-18T07:46:51.861Z,100509.52
2023-03-18T07:49:18.628Z,100503.16
2023-03-18T07:51:46.864Z,100503.79
2023-03-18T07:54:13.732Z,100512.41
2023-03-18T07:56:40.531Z,100509.02
2023-03-18T07:59:09.786Z,100510.45
2023-03-18T08:01:36.657Z,100512.77
2023-03-18T08:04:03.781Z,100515.52
2023-03-18T08:06:32.336Z,100514.16
2023-03-18T08:08:59.766Z,100511.33
2023-03-18T08:11:29.739Z,100508.55
2023-03-18T08:13:58.706Z,100510.41
2023-03-18T08:16:26.563Z,100509.17
2023-03-18T08:18:54.602Z,100510.11
2023-03-18T08:21:24.193Z,100510.11
2023-03-18T08:23:51.634Z,100510.79
2023-03-18T08:26:18.963Z,100509.16
2023-03-18T08:28:45.760Z,100509.20
2023-03-18T08:31:14.721Z,100509.73
2023-03-18T08:33:41.864Z,100507.00
2023-03-18T08:36:08.756Z,100506.02
2023-03-18T08:38:38.567Z,100509.66
2023-03-18T08:41:05.943Z,100510.73
2023-03-18T08:43:32.542Z,100507.88
2023-03-18T08:45:59.655Z,100504.89
2023-03-18T08:48:26.235Z,100508.94
2023-03-18T08:50:55.280Z,100507.56
2023-03-18T08:53:22.162Z,100502.21
2023-03-18T08:55:48.956Z,100504.97
2023-03-18T08:58:16.636Z,100508.07
2023-03-18T09:00:43.834Z,100502.67
2023-03-18T09:03:12.632Z,100502.69
2023-03-18T09:05:40.128Z,100498.70
2023-03-18T09:08:06.832Z,100503.02
2023-03-18T09:10:33.712Z,100500.92
2023-03-18T09:13:01.220Z,100496.38
2023-03-18T09:15:27.948Z,100499.05
2023-03-18T09:18:10.522Z,100500.08
2023-03-18T09:20:39.547Z,100504.17
2023-03-18T09:23:07.759Z,100505.94
2023-03-18T09:25:35.625Z,100504.26
2023-03-18T09:28:02.360Z,100499.85
2023-03-18T09:30:32.983Z,100504.89
2023-03-18T09:33:01.076Z,100506.29
2023-03-18T09:35:35.968Z,100502.71
2023-03-18T09:38:03.400Z,100501.52
2023-03-18T09:40:32.124Z,100504.04
2023-03-18T09:43:03.287Z,100502.14
2023-03-18T09:45:34.011Z,100501.77
2023-03-18T09:48:15.942Z,100506.02
2023-03-18T09:50:49.665Z,100508.53
2023-03-18T09:53:20.682Z,100507.73
2023-03-18T09:55:50.122Z,100508.52
2023-03-18T09:58:36.707Z,100510.58
2023-03-18T10:01:03.928Z,100509.01
2023-03-18T10:03:46.224Z,100507.36
2023-03-18T10:06:31.115Z,100505.18
2023-03-18T10:09:05.097Z,100499.63
2023-03-18T10:11:37.718Z,100498.77
2023-03-18T10:14:22.976Z,100496.83
2023-03-18T10:17:09.392Z,100500.98
2023-03-18T10:19:37.039Z,100500.98
2023-03-18T10:22:18.167Z,100497.88
2023-03-18T10:25:15.103Z,100495.52
2023-03-18T10:27:58.513Z,100496.02
2023-03-18T10:30:39.157Z,100490.95
2023-03-18T10:33:29.327Z,100493.27
2023-03-18T10:36:26.089Z,100495.36
2023-03-18T10:38:53.553Z,100495.09
2023-03-18T10:41:34.315Z,100493.36
2023-03-18T10:44:15.437Z,100492.11
2023-03-18T10:46:43.371Z,100489.84
2023-03-18T10:49:14.411Z,100495.34
2023-03-18T10:51:47.009Z,100496.79
2023-03-18T10:54:24.892Z,100492.20
2023-03-18T10:56:52.488Z,100487.63
2023-03-18T10:59:20.859Z,100489.35
2023-03-18T11:01:52.192Z,100491.10
2023-03-18T11:04:20.906Z,100490.92
2023-03-18T11:07:00.969Z,100491.06
2023-03-18T11:09:35.704Z,100486.94
2023-03-18T11:12:07.199Z,100486.63
2023-03-18T11:14:36.796Z,100482.98
2023-03-18T11:17:05.608Z,100479.52
2023-03-18T11:19:38.633Z,100476.86
2023-03-18T11:22:09.418Z,100479.96
2023-03-18T11:24:41.868Z,100485.35
2023-03-18T11:27:14.089Z,100480.69
2023-03-18T11:29:42.248Z,100480.54
2023-03-18T11:32:27.150Z,100474.98
2023-03-18T11:34:56.610Z,100468.79
2023-03-18T11:37:36.637Z,100468.80
2023-03-18T11:40:13.710Z,100466.23
2023-03-18T11:42:42.640Z,100464.13
2023-03-18T11:45:35.291Z,100461.71
2023-03-18T11:48:03.096Z,100457.21
2023-03-18T11:50:38.901Z,100452.61
2023-03-18T11:53:17.016Z,100453.77
2023-03-18T11:56:31.024Z,100451.81
2023-03-18T11:59:08.907Z,100453.15
2023-03-18T12:01:46.139Z,100449.38
2023-03-18T12:04:35.235Z,100447.02
2023-03-18T12:07:14.721Z,100447.27
2023-03-18T12:10:12.254Z,100444.61
2023-03-18T12:12:45.967Z,100439.44
2023-03-18T12:15:35.700Z,100438.71
2023-03-18T12:18:11.466Z,100436.88
2023-03-18T12:20:47.422Z,100434.03
2023-03-18T12:23:32.344Z,100432.19
2023-03-18T12:26:16.409Z,100435.77
2023-03-18T12:29:09.001Z,100432.11
2023-03-18T12:31:40.708Z,100432.08
2023-03-18T12:34:22.821Z,100427.96
2023-03-18T12:37:31.632Z,100427.06
2023-03-18T12:40:20.780Z,100426.22
2023-03-18T12:43:20.309Z,100422.44
2023-03-18T12:45:47.999Z,100419.18
2023-03-18T12:48:17.998Z,100416.84
2023-03-18T12:51:05.450Z,100420.45
2023-03-18T12:53:40.582Z,100419.34
2023-03-18T12:56:16.822Z,100419.45
2023-03-18T12:58:45.628Z,100418.36
2023-03-18T13:01:17.513Z,100418.02
2023-03-18T13:03:51.474Z,100411.45
2023-03-18T13:06:39.840Z,100413.46
2023-03-18T13:09:44.021Z,100409.06
2023-03-18T13:12:32.840Z,100406.27
2023-03-18T13:15:26.170Z,100404.52
2023-03-18T13:17:55.665Z,100402.05
2023-03-18T13:20:24.323Z,100397.56
2023-03-18T13:23:20.136Z,100397.71
2023-03-18T13:26:14.674Z,100396.57
2023-03-18T13:29:20.127Z,100393.30
2023-03-18T13:32:06.090Z,100385.63
2023-03-18T13:34:49.440Z,100382.09
2023-03-18T13:37:34.189Z,100380.89
2023-03-18T13:40:42.979Z,100381.99
2023-03-18T13:43:17.684Z,100388.58
2023-03-18T13:45:46.034Z,100389.99
2023-03-18T13:48:27.922Z,100384.78
2023-03-18T13:50:56.853Z,100387.79
2023-03-18T13:53:29.432Z,100390.24
2023-03-18T13:55:57.225Z,100389.60
2023-03-18T13:58:27.055Z,100388.90
2023-03-18T14:00:54.421Z,100390.08
2023-03-18T14:03:22.320Z,100388.64
2023-03-18T14:05:53.482Z,100391.20
2023-03-18T14:08:41.732Z,100388.71
2023-03-18T14:11:21.959Z,100390.10
2023-03-18T14:13:53.277Z,100392.55
2023-03-18T14:16:46.794Z,100395.20
2023-03-18T14:19:27.864Z,100384.73
2023-03-18T14:22:07.632Z,100385.59
2023-03-18T14:24:34.772Z,100386.46
2023-03-18T14:27:03.810Z,100386.96
2023-03-18T14:29:41.064Z,100384.90
2023-03-18T14:32:35.752Z,100384.23
2023-03-18T14:35:30.532Z,100383.44
2023-03-18T14:38:10.183Z,100379.70
2023-03-18T14:40:42.448Z,100374.80
2023-03-18T14:43:38.206Z,100375.69
2023-03-18T14:46:31.241Z,100373.63
2023-03-18T14:49:01.324Z,100374.10
2023-03-18T14:51:31.744Z,100372.73
2023-03-18T14:54:06.300Z,100370.25
2023-03-18T14:56:42.169Z,100375.17
2023-03-18T14:59:16.764Z,100374.55
2023-03-18T15:01:52.980Z,100377.63
2023-03-18T15:04:25.186Z,100372.58
2023-03-18T15:06:56.481Z,100370.13
2023-03-18T15:09:30.166Z,100361.85
2023-03-18T15:11:59.189Z,100367.04
2023-03-18T15:14:31.097Z,100366.23
2023-03-18T15:17:02.209Z,100367.66
2023-03-18T15:19:34.289Z,100364.91
2023-03-18T15:22:07.203Z,100364.91
2023-03-18T15:24:38.194Z,100364.92
2023-03-18T15:27:21.364Z,100365.25
2023-03-18T15:29:57.230Z,100368.69
2023-03-18T15:32:35.169Z,100363.34
2023-03-18T15:41:40.050Z,100375.52
2023-03-18T15:44:14.454Z,100374.02
2023-03-18T15:46:46.380Z,100375.47
2023-03-18T15:49:14.746Z,100375.98
2023-03-18T15:51:47.819Z,100379.52
2023-03-18T15:54:18.175Z,100377.27
2023-03-18T15:56:48.842Z,100377.83
2023-03-18T15:59:24.559Z,100378.57
2023-03-18T16:01:54.600Z,100376.91
2023-03-18T16:04:22.960Z,100374.59
2023-03-18T16:06:54.892Z,100370.02
2023-03-18T16:09:24.532Z,100372.34
2023-03-18T16:11:59.190Z,100373.52
2023-03-18T16:14:30.461Z,100375.80
2023-03-18T16:16:58.771Z,100377.74
2023-03-18T16:19:28.431Z,100377.13
2023-03-18T16:21:58.706Z,100377.41
2023-03-18T16:24:28.119Z,100379.77
2023-03-18T16:26:57.272Z,100381.05
2023-03-18T16:29:32.770Z,100381.36
2023-03-18T16:32:02.060Z,100381.46
2023-03-18T16:34:30.834Z,100379.60
2023-03-18T16:36:58.858Z,100382.23
2023-03-18T16:39:34.335Z,100378.05
2023-03-18T16:42:08.744Z,100378.25
2023-03-18T16:44:37.178Z,100377.20
2023-03-18T16:47:05.479Z,100378.19
2023-03-18T16:49:36.761Z,100380.54
2023-03-18T16:52:05.139Z,100380.10
2023-03-18T16:54:34.392Z,100381.51
2023-03-18T16:57:05.894Z,100381.13
2023-03-18T16:59:35.386Z,100378.01
2023-03-18T17:02:04.329Z,100379.84
2023-03-18T17:04:34.564Z,100376.88
2023-03-18T17:07:04.691Z,100376.34
2023-03-18T17:09:32.951Z,100378.10
2023-03-18T17:12:06.623Z,100378.41
2023-03-18T17:14:40.106Z,100377.75
2023-03-18T17:17:28.350Z,100378.63
2023-03-18T17:20:03.928Z,100380.71
2023-03-18T17:22:33.551Z,100383.06
2023-03-18T17:25:02.580Z,100384.07
2023-03-18T17:27:34.900Z,100389.98
2023-03-18T17:30:03.722Z,100391.02
2023-03-18T17:32:32.567Z,100386.74
2023-03-18T17:35:01.332Z,100391.83
2023-03-18T17:37:29.786Z,100390.08
2023-03-18T17:40:06.963Z,100392.61
2023-03-18T17:42:36.299Z,100392.00
2023-03-18T17:45:29.736Z,100393.75
2023-03-18T17:48:22.076Z,100395.22
2023-03-18T17:51:02.791Z,100398.60
2023-03-18T17:53:37.535Z,100395.75
2023-03-18T17:56:08.007Z,100396.33
2023-03-18T17:58:37.861Z,100391.76
2023-03-18T18:01:07.874Z,100394.70
2023-03-18T18:03:36.982Z,100392.77
2023-03-18T18:06:06.935Z,100395.39
2023-03-18T18:08:36.209Z,100399.74
2023-03-18T18:11:15.392Z,100400.11
2023-03-18T18:13:43.699Z,100403.36
2023-03-18T18:16:13.141Z,100403.78
2023-03-18T18:18:49.625Z,100404.58
2023-03-18T18:21:22.059Z,100406.58
2023-03-18T18:23:50.603Z,100400.02
2023-03-18T18:26:19.984Z,100397.55
2023-03-18T18:28:49.659Z,100399.45
2023-03-18T18:31:22.359Z,100399.96
2023-03-18T18:33:55.779Z,100400.73
2023-03-18T18:36:28.214Z,100397.28
2023-03-18T18:38:56.758Z,100403.70
2023-03-18T18:41:27.553Z,100407.33
2023-03-18T18:43:56.013Z,100400.84
2023-03-18T18:46:25.200Z,100401.77
2023-03-18T18:48:53.898Z,100404.73
2023-03-18T18:51:23.271Z,100406.41
2023-03-18T18:53:53.488Z,100401.08
2023-03-18T18:56:23.765Z,100401.56
2023-03-18T18:58:52.083Z,100400.58
2023-03-18T19:01:20.407Z,100403.38
2023-03-18T19:03:50.072Z,100408.48
2023-03-18T19:06:30.511Z,100413.66
2023-03-18T19:09:01.999Z,100406.52
2023-03-18T19:11:30.299Z,100413.35
2023-03-18T19:14:21.995Z,100413.52
2023-03-18T19:16:50.534Z,100409.94
2023-03-18T19:19:20.656Z,100407.86
2023-03-18T19:21:54.446Z,100407.98
2023-03-18T19:24:30.961Z,100410.52
2023-03-18T19:27:03.175Z,100412.22
2023-03-18T19:29:33.089Z,100416.00
2023-03-18T19:32:01.867Z,100417.98
2023-03-18T19:34:32.472Z,100414.71
2023-03-18T19:37:02.987Z,100419.23
2023-03-18T19:39:32.055Z,100417.86
2023-03-18T19:42:01.750Z,100415.04
2023-03-18T19:44:32.149Z,100415.21
2023-03-18T19:47:01.638Z,100412.55
2023-03-18T19:49:36.620Z,100412.41
2023-03-18T19:52:17.112Z,100408.39
2023-03-18T19:54:48.399Z,100405.02
2023-03-18T19:57:28.176Z,100403.76
2023-03-18T20:00:01.418Z,100402.20
2023-03-18T20:02:31.792Z,100400.33
2023-03-18T20:05:04.465Z,100399.36
2023-03-18T20:07:33.269Z,100393.74
2023-03-18T20:10:01.748Z,100393.09
2023-03-18T20:12:46.802Z,100394.17
2023-03-18T20:15:25.593Z,100394.27
2023-03-18T20:17:55.058Z,100390.87
2023-03-18T20:20:25.061Z,100387.48
2023-03-18T20:22:56.414Z,100387.20
2023-03-18T20:25:36.006Z,100389.23
2023-03-18T20:28:07.320Z,100385.54
2023-03-18T20:30:36.770Z,100388.33
2023-03-18T20:33:07.606Z,100385.68
2023-03-18T20:35:41.694Z,100381.69
2023-03-18T20:38:14.183Z,100382.58
2023-03-18T20:40:46.411Z,100378.15
2023-03-18T20:43:19.833Z,100375.79
2023-03-18T20:45:51.571Z,100375.84
2023-03-18T20:48:21.213Z,100374.02
2023-03-18T20:50:52.441Z,100375.20
2023-03-18T20:53:26.136Z,100372.46
2023-03-18T20:55:54.435Z,100375.13
2023-03-18T20:58:25.030Z,100374.40
2023-03-18T21:00:54.552Z,100370.90
2023-03-18T21:03:33.825Z,100370.45
2023-03-18T21:06:03.966Z,100373.75
2023-03-18T21:08:33.200Z,100370.23
2023-03-18T21:11:04.024Z,100365.45
2023-03-18T21:13:36.334Z,100363.33
2023-03-18T21:16:10.748Z,100365.64
2023-03-18T21:18:40.946Z,100362.58
2023-03-18T21:21:31.970Z,100361.95
2023-03-18T21:24:00.330Z,100364.16
2023-03-18T21:26:28.649Z,100365.61
2023-03-18T21:28:57.466Z,100365.54
2023-03-18T21:31:31.462Z,100366.05
2023-03-18T21:34:00.209Z,100367.90
2023-03-18T21:36:28.275Z,100369.27
2023-03-18T21:38:56.970Z,100366.60
2023-03-18T21:41:28.105Z,100370.48
2023-03-18T21:43:56.125Z,100369.84
2023-03-18T21:46:27.230Z,100370.85
2023-03-18T21:48:56.203Z,100371.11
2023-03-18T21:51:38.097Z,100368.40
2023-03-18T21:54:16.209Z,100368.13
2023-03-18T21:56:47.924Z,100367.60
2023-03-18T21:59:16.255Z,100370.48
2023-03-18T22:01:46.708Z,100369.91
2023-03-18T22:04:15.159Z,100371.30
2023-03-18T22:06:43.640Z,100368.94
2023-03-18T22:09:11.914Z,100367.16
2023-03-18T22:11:39.908Z,100365.02
2023-03-18T22:14:10.411Z,100367.69
2023-03-18T22:16:40.152Z,100369.17
2023-03-18T22:19:08.611Z,100370.91
2023-03-18T22:21:39.762Z,100367.41
2023-03-18T22:24:12.961Z,100367.41
2023-03-18T22:26:41.140Z,100362.34
2023-03-18T22:29:12.646Z,100369.30
2023-03-18T22:31:43.624Z,100372.05
2023-03-18T22:34:22.701Z,100370.09
2023-03-18T22:36:51.837Z,100366.38
2023-03-18T22:39:20.066Z,100369.27
2023-03-18T22:41:53.768Z,100370.15
2023-03-18T22:44:22.922Z,100363.89
2023-03-18T22:46:51.472Z,100364.35
2023-03-18T22:49:20.095Z,100364.80
2023-03-18T22:51:48.956Z,100362.46
2023-03-18T22:54:19.287Z,100360.48
2023-03-18T22:56:47.303Z,100361.42
2023-03-18T22:59:15.531Z,100361.23
2023-03-18T23:01:43.888Z,100358.16
2023-03-18T23:04:12.503Z,100361.16
2023-03-18T23:06:44.187Z,100360.92
2023-03-18T23:09:13.167Z,100359.92
2023-03-18T23:11:41.218Z,100357.39
2023-03-18T23:14:11.094Z,100356.81
2023-03-18T23:16:41.158Z,100352.95
2023-03-18T23:19:09.546Z,100351.65
2023-03-18T23:21:39.675Z,100343.38
2023-03-18T23:24:09.358Z,100346.09
2023-03-18T23:26:37.501Z,100337.92
2023-03-18T23:29:06.448Z,100338.30
2023-03-18T23:31:34.713Z,100332.29
2023-03-18T23:34:03.940Z,100324.45
2023-03-18T23:36:33.021Z,100319.70
2023-03-18T23:39:01.342Z,100319.55
2023-03-18T23:41:30.732Z,100324.02
2023-03-18T23:44:03.688Z,100319.56
2023-03-18T23:46:32.927Z,100320.17
2023-03-18T23:49:01.383Z,100319.46
2023-03-18T23:51:30.073Z,100314.33
2023-03-18T23:53:58.307Z,100309.65
2023-03-18T23:56:26.515Z,100308.44
2023-03-18T23:58:54.994Z,100305.77
